createdAt,value
2018-06-16T00:02:20.001Z,10.70
2018-06-16T00:04:48.061Z,9.83
2018-06-16T00:07:16.158Z,8.30
2018-06-16T00:09:44.201Z,16.33
2018-06-16T00:12:12.292Z,12.03
2018-06-16T00:14:40.844Z,15.50
2018-06-16T00:17:08.922Z,8.73
2018-06-16T00:19:37.230Z,6.80
2018-06-16T00:22:05.493Z,6.77
2018-06-16T00:24:33.344Z,9.63
2018-06-16T00:27:01.278Z,15.03
2018-06-16T00:29:29.333Z,8.93
2018-06-16T00:31:57.391Z,5.57
2018-06-16T00:34:25.492Z,11.30
2018-06-16T00:36:53.545Z,11.27
2018-06-16T00:39:21.643Z,17.00
2018-06-16T00:41:49.697Z,14.10
2018-06-16T00:44:17.769Z,7.00
2018-06-16T00:46:45.849Z,13.63
2018-06-16T00:49:13.926Z,16.10
2018-06-16T00:51:41.999Z,8.57
2018-06-16T00:54:10.053Z,10.80
2018-06-16T00:56:38.131Z,5.27
2018-06-16T00:59:07.496Z,12.87
2018-06-16T01:01:35.565Z,7.73
2018-06-16T01:04:03.641Z,14.47
2018-06-16T01:06:31.689Z,7.17
2018-06-16T01:08:59.741Z,10.57
2018-06-16T01:11:27.798Z,11.17
2018-06-16T01:13:55.889Z,10.50
2018-06-16T01:16:23.965Z,11.50
2018-06-16T01:18:52.043Z,8.73
2018-06-16T01:21:20.049Z,8.40
2018-06-16T01:23:48.103Z,11.80
2018-06-16T01:26:16.166Z,4.53
2018-06-16T01:28:44.236Z,10.27
2018-06-16T01:31:12.280Z,9.70
2018-06-16T01:33:40.342Z,5.30
2018-06-16T01:36:08.397Z,10.50
2018-06-16T01:38:36.605Z,6.50
2018-06-16T01:41:05.331Z,14.30
2018-06-16T01:43:33.310Z,9.43
2018-06-16T01:46:01.382Z,11.03
2018-06-16T01:48:29.458Z,13.73
2018-06-16T01:50:57.546Z,10.27
2018-06-16T01:53:25.677Z,8.23
2018-06-16T01:55:53.739Z,9.53
2018-06-16T01:58:21.790Z,10.50
2018-06-16T02:00:49.869Z,9.50
2018-06-16T02:03:17.976Z,12.50
2018-06-16T02:05:46.018Z,11.63
2018-06-16T02:08:14.082Z,13.47
2018-06-16T02:10:42.159Z,8.20
2018-06-16T02:13:10.209Z,7.50
2018-06-16T02:15:38.301Z,10.80
2018-06-16T02:18:06.356Z,9.00
2018-06-16T02:20:34.401Z,5.70
2018-06-16T02:23:02.446Z,8.90
2018-06-16T02:25:30.508Z,13.43
2018-06-16T02:27:58.536Z,7.70
2018-06-16T02:30:26.589Z,11.40
2018-06-16T02:32:54.726Z,8.33
2018-06-16T02:35:23.011Z,11.07
2018-06-16T02:37:51.064Z,9.73
2018-06-16T02:40:19.134Z,6.97
2018-06-16T02:42:47.180Z,11.83
2018-06-16T02:45:15.409Z,7.63
2018-06-16T02:47:43.474Z,7.47
2018-06-16T02:50:11.583Z,9.70
2018-06-16T02:52:39.605Z,10.33
2018-06-16T02:55:07.678Z,8.30
2018-06-16T02:57:35.754Z,9.00
2018-06-16T03:00:03.810Z,12.40
2018-06-16T03:02:31.929Z,7.90
2018-06-16T03:04:59.994Z,13.50
2018-06-16T03:07:28.081Z,9.60
2018-06-16T03:09:55.953Z,8.67
2018-06-16T03:12:23.998Z,11.20
2018-06-16T03:14:51.933Z,11.40
2018-06-16T03:17:19.987Z,26.50
2018-06-16T03:19:48.022Z,9.40
2018-06-16T03:22:16.066Z,9.10
2018-06-16T03:24:44.385Z,9.20
2018-06-16T03:27:12.433Z,14.93
2018-06-16T03:29:40.361Z,9.67
2018-06-16T03:32:08.421Z,6.70
2018-06-16T03:34:36.493Z,7.13
2018-06-16T03:37:04.897Z,12.50
2018-06-16T03:39:32.938Z,10.50
2018-06-16T03:42:01.010Z,10.07
2018-06-16T03:44:29.073Z,8.23
2018-06-16T03:46:57.145Z,9.57
2018-06-16T03:49:25.264Z,6.63
2018-06-16T03:51:53.350Z,9.90
2018-06-16T03:54:21.420Z,14.13
2018-06-16T03:56:49.473Z,9.87
2018-06-16T03:59:17.538Z,8.97
2018-06-16T04:01:45.626Z,16.33
2018-06-16T04:04:13.830Z,10.87
2018-06-16T04:06:41.896Z,11.10
2018-06-16T04:09:10.958Z,13.87
2018-06-16T04:11:39.312Z,11.73
2018-06-16T04:14:07.604Z,10.70
2018-06-16T04:16:35.691Z,15.40
2018-06-16T04:19:03.617Z,12.07
2018-06-16T04:21:31.720Z,11.07
2018-06-16T04:23:59.857Z,12.83
2018-06-16T04:26:27.899Z,12.50
2018-06-16T04:28:55.961Z,15.27
2018-06-16T04:31:25.129Z,18.33
2018-06-16T04:33:53.190Z,7.73
2018-06-16T04:36:21.310Z,11.33
2018-06-16T04:38:49.401Z,13.53
2018-06-16T04:41:17.589Z,13.27
2018-06-16T04:43:45.997Z,14.80
2018-06-16T04:46:14.058Z,12.00
2018-06-16T04:48:43.017Z,10.57
2018-06-16T04:51:11.117Z,11.47
2018-06-16T04:53:39.157Z,13.43
2018-06-16T04:56:07.208Z,8.33
2018-06-16T04:58:35.382Z,14.70
2018-06-16T05:01:03.434Z,14.13
2018-06-16T05:03:31.316Z,14.87
2018-06-16T05:05:59.390Z,9.03
2018-06-16T05:08:27.469Z,15.10
2018-06-16T05:10:55.524Z,12.60
2018-06-16T05:13:23.594Z,7.70
2018-06-16T05:15:51.645Z,10.20
2018-06-16T05:18:19.737Z,8.97
2018-06-16T05:20:47.814Z,14.20
2018-06-16T05:23:15.891Z,12.47
2018-06-16T05:25:44.010Z,10.03
2018-06-16T05:28:12.013Z,9.53
2018-06-16T05:30:40.074Z,20.87
2018-06-16T05:33:08.130Z,9.40
2018-06-16T05:35:36.183Z,11.73
2018-06-16T05:38:04.231Z,8.47
2018-06-16T05:40:32.294Z,21.43
2018-06-16T05:43:00.421Z,15.73
2018-06-16T05:45:28.486Z,13.73
2018-06-16T05:47:56.549Z,18.23
2018-06-16T05:50:25.190Z,15.37
2018-06-16T05:52:53.266Z,17.70
2018-06-16T05:55:21.482Z,16.47
2018-06-16T05:57:49.550Z,22.73
2018-06-16T06:00:17.621Z,10.03
2018-06-16T06:02:45.716Z,15.83
2018-06-16T06:05:13.778Z,10.00
2018-06-16T06:07:41.842Z,17.47
2018-06-16T06:10:09.986Z,13.73
2018-06-16T06:12:38.069Z,17.00
2018-06-16T06:15:06.155Z,8.77
2018-06-16T06:17:34.200Z,18.57
2018-06-16T06:20:02.290Z,14.33
2018-06-16T06:22:30.349Z,20.90
2018-06-16T06:24:58.417Z,14.20
2018-06-16T06:27:27.007Z,14.73
2018-06-16T06:29:55.166Z,11.17
2018-06-16T06:32:23.221Z,17.87
2018-06-16T06:34:51.302Z,17.63
2018-06-16T06:37:19.374Z,29.13
2018-06-16T06:39:47.417Z,15.50
2018-06-16T06:42:15.481Z,14.10
2018-06-16T06:44:43.533Z,13.87
2018-06-16T06:47:11.577Z,19.77
2018-06-16T06:49:39.628Z,15.53
2018-06-16T06:52:07.698Z,26.80
2018-06-16T06:54:35.755Z,25.90
2018-06-16T06:57:03.789Z,16.40
2018-06-16T06:59:31.845Z,20.20
2018-06-16T07:01:59.906Z,23.93
2018-06-16T07:04:27.970Z,30.87
2018-06-16T07:06:56.027Z,15.00
2018-06-16T07:09:24.093Z,14.73
2018-06-16T07:11:52.148Z,12.27
2018-06-16T07:14:20.245Z,19.43
2018-06-16T07:16:48.299Z,19.10
2018-06-16T07:19:16.372Z,24.37
2018-06-16T07:21:44.417Z,14.80
2018-06-16T07:24:12.693Z,14.60
2018-06-16T07:26:40.757Z,31.23
2018-06-16T07:29:08.831Z,14.30
2018-06-16T07:31:36.885Z,20.43
2018-06-16T07:34:04.989Z,20.20
2018-06-16T07:36:33.088Z,14.93
2018-06-16T07:39:01.182Z,10.97
2018-06-16T07:41:29.355Z,15.33
2018-06-16T07:43:57.411Z,19.83
2018-06-16T07:46:25.477Z,12.80
2018-06-16T07:48:53.639Z,18.30
2018-06-16T07:51:21.630Z,15.03
2018-06-16T07:53:49.687Z,14.20
2018-06-16T07:56:17.750Z,14.80
2018-06-16T07:58:45.818Z,17.77
2018-06-16T08:01:13.903Z,79.60
2018-06-16T08:03:41.889Z,19.90
2018-06-16T08:06:09.852Z,27.03
2018-06-16T08:08:37.929Z,18.03
2018-06-16T08:11:06.028Z,15.37
2018-06-16T08:13:34.353Z,26.93
2018-06-16T08:16:02.413Z,18.97
2018-06-16T08:18:30.641Z,18.73
2018-06-16T08:20:58.796Z,22.53
2018-06-16T08:23:26.868Z,20.23
2018-06-16T08:25:54.934Z,18.80
2018-06-16T08:28:23.089Z,17.57
2018-06-16T08:30:51.200Z,21.47
2018-06-16T08:33:19.254Z,37.07
2018-06-16T08:35:47.321Z,13.50
2018-06-16T08:38:15.394Z,21.13
2018-06-16T08:40:43.482Z,26.67
2018-06-16T08:43:11.579Z,20.57
2018-06-16T08:45:39.480Z,22.07
2018-06-16T08:48:07.577Z,22.50
2018-06-16T08:50:35.651Z,16.40
2018-06-16T08:53:03.726Z,14.80
2018-06-16T08:55:31.851Z,24.30
2018-06-16T08:57:59.834Z,19.40
2018-06-16T09:00:27.937Z,13.87
2018-06-16T09:02:56.001Z,27.70
2018-06-16T09:05:24.234Z,17.07
2018-06-16T09:07:53.171Z,11.10
2018-06-16T09:10:21.306Z,12.53
2018-06-16T09:12:49.444Z,21.80
2018-06-16T09:15:17.531Z,12.03
2018-06-16T09:17:45.602Z,16.40
2018-06-16T09:20:13.704Z,19.10
2018-06-16T09:22:41.785Z,10.57
2018-06-16T09:25:09.903Z,19.47
2018-06-16T09:27:37.961Z,18.03
2018-06-16T09:30:06.574Z,16.90
2018-06-16T09:32:34.654Z,15.93
2018-06-16T09:35:02.710Z,13.87
2018-06-16T09:37:30.767Z,9.93
2018-06-16T09:39:58.853Z,13.33
2018-06-16T09:42:27.000Z,19.13
2018-06-16T09:44:55.126Z,19.40
2018-06-16T09:47:23.203Z,10.57
2018-06-16T09:49:51.272Z,20.37
2018-06-16T09:52:19.353Z,20.07
2018-06-16T09:54:48.040Z,8.30
2018-06-16T09:57:16.085Z,8.80
2018-06-16T09:59:45.162Z,11.37
2018-06-16T10:02:13.243Z,7.80
2018-06-16T10:04:41.294Z,7.50
2018-06-16T10:07:09.509Z,8.23
2018-06-16T10:09:37.566Z,14.90
2018-06-16T10:12:05.641Z,22.90
2018-06-16T10:14:33.693Z,8.40
2018-06-16T10:17:01.926Z,7.73
2018-06-16T10:19:29.991Z,7.30
2018-06-16T10:21:58.194Z,5.57
2018-06-16T10:24:27.081Z,8.00
2018-06-16T10:26:56.397Z,8.83
2018-06-16T10:29:24.532Z,11.23
2018-06-16T10:31:52.589Z,5.90
2018-06-16T10:34:20.723Z,6.60
2018-06-16T10:36:49.095Z,11.40
2018-06-16T10:39:17.125Z,9.73
2018-06-16T10:41:45.229Z,9.47
2018-06-16T10:44:13.308Z,12.97
2018-06-16T10:46:41.582Z,12.43
2018-06-16T10:49:09.637Z,7.27
2018-06-16T10:51:37.722Z,8.03
2018-06-16T10:54:06.861Z,8.83
2018-06-16T10:56:34.909Z,9.67
2018-06-16T10:59:03.125Z,7.77
2018-06-16T11:01:31.181Z,8.73
2018-06-16T11:03:59.220Z,12.57
2018-06-16T11:06:27.285Z,6.13
2018-06-16T11:08:55.331Z,22.27
2018-06-16T11:11:23.445Z,8.23
2018-06-16T11:13:51.545Z,10.80
2018-06-16T11:16:19.870Z,14.80
2018-06-16T11:18:47.948Z,9.93
2018-06-16T11:21:15.997Z,10.00
2018-06-16T11:23:44.096Z,16.00
2018-06-16T11:26:12.189Z,11.63
2018-06-16T11:28:40.245Z,14.17
2018-06-16T11:31:08.315Z,12.67
2018-06-16T11:33:36.422Z,14.03
2018-06-16T11:36:04.529Z,15.37
2018-06-16T11:38:32.444Z,14.30
2018-06-16T11:41:00.522Z,12.70
2018-06-16T11:43:28.598Z,28.53
2018-06-16T11:45:56.654Z,16.97
2018-06-16T11:48:24.825Z,10.10
2018-06-16T11:50:52.889Z,20.43
2018-06-16T11:53:20.945Z,14.30
2018-06-16T11:55:49.033Z,11.50
2018-06-16T11:58:17.145Z,14.60
2018-06-16T12:00:45.216Z,16.73
2018-06-16T12:03:13.320Z,15.40
2018-06-16T12:05:41.378Z,25.60
2018-06-16T12:08:09.429Z,23.80
2018-06-16T12:10:37.494Z,47.23
2018-06-16T12:13:05.582Z,18.13
2018-06-16T12:15:33.632Z,35.47
2018-06-16T12:18:01.680Z,59.37
2018-06-16T12:20:29.762Z,27.47
2018-06-16T12:22:57.801Z,30.33
2018-06-16T12:25:25.708Z,15.63
2018-06-16T12:27:53.628Z,33.37
2018-06-16T12:30:21.735Z,23.93
2018-06-16T12:32:49.803Z,26.87
2018-06-16T12:35:17.853Z,45.77
2018-06-16T12:37:46.045Z,19.70
2018-06-16T12:40:14.173Z,8.23
2018-06-16T12:42:42.234Z,8.00
2018-06-16T12:45:10.321Z,10.53
2018-06-16T12:47:38.388Z,11.87
2018-06-16T12:50:07.211Z,9.93
2018-06-16T12:52:35.313Z,11.00
2018-06-16T12:55:03.405Z,12.60
2018-06-16T12:57:31.542Z,12.50
2018-06-16T12:59:59.541Z,8.90
2018-06-16T13:02:27.599Z,22.70
2018-06-16T13:04:55.636Z,9.37
2018-06-16T13:07:23.713Z,7.80
2018-06-16T13:09:51.785Z,9.93
2018-06-16T13:12:19.824Z,9.50
2018-06-16T13:14:47.885Z,9.83
2018-06-16T13:17:15.953Z,9.00
2018-06-16T13:19:44.038Z,9.20
2018-06-16T13:22:12.086Z,7.23
2018-06-16T13:24:40.150Z,10.20
2018-06-16T13:27:08.214Z,10.93
2018-06-16T13:29:36.287Z,19.93
2018-06-16T13:32:04.344Z,11.03
2018-06-16T13:34:32.209Z,9.50
2018-06-16T13:37:00.258Z,10.73
2018-06-16T13:39:28.318Z,12.80
2018-06-16T13:41:56.366Z,9.50
2018-06-16T13:44:24.413Z,14.43
2018-06-16T13:46:52.458Z,12.60
2018-06-16T13:49:21.371Z,10.60
2018-06-16T13:51:49.430Z,12.13
2018-06-16T13:54:17.496Z,12.03
2018-06-16T13:56:46.256Z,14.30
2018-06-16T13:59:14.225Z,11.70
2018-06-16T14:01:42.273Z,20.70
2018-06-16T14:04:10.263Z,11.20
2018-06-16T14:06:38.311Z,14.57
2018-06-16T14:09:07.477Z,16.03
2018-06-16T14:11:35.738Z,12.33
2018-06-16T14:14:03.962Z,12.47
2018-06-16T14:16:32.028Z,17.53
2018-06-16T14:19:00.198Z,19.20
2018-06-16T14:21:28.270Z,10.33
2018-06-16T14:23:56.351Z,14.90
2018-06-16T14:26:24.421Z,12.23
2018-06-16T14:28:52.511Z,11.40
2018-06-16T14:31:20.650Z,10.90
2018-06-16T14:33:48.777Z,22.63
2018-06-16T14:36:16.844Z,9.83
2018-06-16T14:38:44.724Z,7.10
2018-06-16T14:41:12.845Z,15.27
2018-06-16T14:43:40.889Z,8.20
2018-06-16T14:46:08.943Z,5.63
2018-06-16T14:48:37.010Z,10.43
2018-06-16T14:51:05.239Z,6.47
2018-06-16T14:53:33.286Z,6.37
2018-06-16T14:56:01.423Z,5.90
2018-06-16T14:58:29.415Z,6.57
2018-06-16T15:00:58.158Z,11.17
2018-06-16T15:03:26.834Z,6.97
2018-06-16T15:05:54.785Z,6.60
2018-06-16T15:08:22.826Z,9.17
2018-06-16T15:10:51.799Z,9.73
2018-06-16T15:13:19.941Z,4.73
2018-06-16T15:15:48.011Z,12.70
2018-06-16T15:18:16.073Z,8.40
2018-06-16T15:20:44.105Z,6.30
2018-06-16T15:23:12.174Z,10.90
2018-06-16T15:25:40.261Z,6.87
2018-06-16T15:28:08.281Z,4.83
2018-06-16T15:30:36.525Z,7.13
2018-06-16T15:33:04.737Z,6.53
2018-06-16T15:35:33.069Z,8.60
2018-06-16T15:38:01.115Z,8.47
2018-06-16T15:40:29.218Z,6.03
2018-06-16T15:42:57.292Z,4.63
2018-06-16T15:45:25.341Z,8.47
2018-06-16T15:47:53.388Z,9.10
2018-06-16T15:50:21.434Z,7.10
2018-06-16T15:52:50.371Z,7.10
2018-06-16T15:55:18.454Z,9.80
2018-06-16T15:57:47.166Z,11.67
2018-06-16T16:00:15.106Z,20.47
2018-06-16T16:02:43.172Z,10.77
2018-06-16T16:05:11.234Z,12.77
2018-06-16T16:07:39.288Z,8.23
2018-06-16T16:10:07.349Z,8.23
2018-06-16T16:12:35.402Z,10.73
2018-06-16T16:15:03.654Z,15.10
2018-06-16T16:17:31.691Z,9.43
2018-06-16T16:19:59.798Z,11.17
2018-06-16T16:22:27.809Z,13.40
2018-06-16T16:24:55.886Z,9.33
2018-06-16T16:27:23.954Z,11.57
2018-06-16T16:29:52.066Z,12.80
2018-06-16T16:32:20.158Z,10.27
2018-06-16T16:34:48.008Z,14.57
2018-06-16T16:37:16.080Z,10.63
2018-06-16T16:39:44.130Z,8.33
2018-06-16T16:42:12.201Z,11.17
2018-06-16T16:44:40.299Z,17.63
2018-06-16T16:47:08.335Z,7.70
2018-06-16T16:49:36.413Z,6.00
2018-06-16T16:52:04.613Z,9.93
2018-06-16T16:54:32.705Z,8.17
2018-06-16T16:57:00.851Z,7.73
2018-06-16T16:59:28.919Z,10.43
2018-06-16T17:01:56.969Z,6.80
2018-06-16T17:04:25.061Z,9.17
2018-06-16T17:06:53.357Z,13.90
2018-06-16T17:09:21.437Z,9.37
2018-06-16T17:11:49.513Z,5.73
2018-06-16T17:14:17.594Z,6.67
2018-06-16T17:16:45.718Z,6.33
2018-06-16T17:19:13.883Z,8.87
2018-06-16T17:21:41.897Z,12.33
2018-06-16T17:24:09.985Z,4.57
2018-06-16T17:26:38.644Z,5.53
2018-06-16T17:29:06.568Z,5.60
2018-06-16T17:31:34.652Z,11.80
2018-06-16T17:34:02.729Z,16.03
2018-06-16T17:36:30.787Z,4.87
2018-06-16T17:38:58.836Z,4.80
2018-06-16T17:41:26.922Z,7.80
2018-06-16T17:43:54.971Z,7.40
2018-06-16T17:46:23.043Z,6.70
2018-06-16T17:48:51.129Z,7.50
2018-06-16T17:51:19.244Z,5.90
2018-06-16T17:53:47.311Z,9.10
2018-06-16T17:56:15.388Z,8.10
2018-06-16T17:58:43.830Z,13.13
2018-06-16T18:01:11.921Z,14.10
2018-06-16T18:03:39.968Z,11.00
2018-06-16T18:06:08.110Z,15.53
2018-06-16T18:08:36.380Z,21.50
2018-06-16T18:11:04.509Z,14.47
2018-06-16T18:13:32.681Z,26.97
2018-06-16T18:16:00.774Z,19.93
2018-06-16T18:18:28.825Z,22.00
2018-06-16T18:20:56.909Z,27.20
2018-06-16T18:23:24.988Z,21.30
2018-06-16T18:25:53.070Z,26.53
2018-06-16T18:28:21.117Z,24.13
2018-06-16T18:30:49.185Z,26.93
2018-06-16T18:33:17.242Z,23.60
2018-06-16T18:35:45.305Z,31.10
2018-06-16T18:38:13.366Z,25.63
2018-06-16T18:40:41.428Z,25.20
2018-06-16T18:43:09.490Z,26.83
2018-06-16T18:45:37.536Z,19.60
2018-06-16T18:48:05.758Z,34.93
2018-06-16T18:50:33.825Z,27.83
2018-06-16T18:53:02.301Z,25.97
2018-06-16T18:55:30.365Z,25.17
2018-06-16T18:57:58.442Z,23.47
2018-06-16T19:00:26.503Z,27.90
2018-06-16T19:02:54.593Z,28.53
2018-06-16T19:05:22.664Z,26.53
2018-06-16T19:07:50.965Z,25.90
2018-06-16T19:10:19.021Z,20.80
2018-06-16T19:12:47.129Z,28.03
2018-06-16T19:15:15.195Z,24.80
2018-06-16T19:17:43.291Z,28.93
2018-06-16T19:20:11.361Z,25.83
2018-06-16T19:22:39.469Z,30.40
2018-06-16T19:25:07.542Z,30.40
2018-06-16T19:27:35.586Z,23.93
2018-06-16T19:30:03.759Z,29.77
2018-06-16T19:32:32.009Z,33.83
2018-06-16T19:35:00.070Z,32.97
2018-06-16T19:37:28.145Z,26.27
2018-06-16T19:39:56.222Z,27.43
2018-06-16T19:42:24.306Z,24.47
2018-06-16T19:44:52.374Z,27.67
2018-06-16T19:47:20.458Z,28.13
2018-06-16T19:49:48.533Z,24.60
2018-06-16T19:52:16.741Z,20.43
2018-06-16T19:54:45.480Z,33.10
2018-06-16T19:57:13.553Z,24.40
2018-06-16T19:59:41.681Z,28.77
2018-06-16T20:02:10.779Z,28.00
2018-06-16T20:04:38.803Z,29.77
2018-06-16T20:07:06.925Z,27.07
2018-06-16T20:09:34.928Z,19.53
2018-06-16T20:12:02.962Z,18.77
2018-06-16T20:14:31.061Z,28.10
2018-06-16T20:16:59.116Z,33.03
2018-06-16T20:19:27.218Z,20.03
2018-06-16T20:21:55.570Z,19.73
2018-06-16T20:24:23.630Z,21.63
2018-06-16T20:26:51.689Z,23.80
2018-06-16T20:29:19.768Z,22.80
2018-06-16T20:31:47.837Z,27.30
2018-06-16T20:34:15.962Z,22.07
2018-06-16T20:36:43.801Z,24.27
2018-06-16T20:39:12.066Z,28.23
2018-06-16T20:41:40.129Z,28.00
2018-06-16T20:44:08.231Z,25.00
2018-06-16T20:46:36.294Z,20.07
2018-06-16T20:49:04.412Z,18.60
2018-06-16T20:51:32.470Z,20.40
2018-06-16T20:54:00.537Z,28.63
2018-06-16T20:56:28.617Z,24.40
2018-06-16T20:58:56.706Z,21.20
2018-06-16T21:01:24.750Z,27.40
2018-06-16T21:03:52.990Z,88.27
2018-06-16T21:06:21.041Z,67.17
2018-06-16T21:08:49.098Z,26.30
2018-06-16T21:11:17.294Z,22.23
2018-06-16T21:13:45.345Z,22.30
2018-06-16T21:16:13.561Z,24.80
2018-06-16T21:18:41.638Z,29.43
2018-06-16T21:21:09.717Z,27.40
2018-06-16T21:23:37.875Z,22.33
2018-06-16T21:26:05.973Z,24.97
2018-06-16T21:28:34.090Z,24.43
2018-06-16T21:31:02.130Z,21.73
2018-06-16T21:33:30.197Z,43.23
2018-06-16T21:35:58.297Z,26.07
2018-06-16T21:38:26.355Z,27.70
2018-06-16T21:40:54.503Z,23.93
2018-06-16T21:43:22.628Z,23.57
2018-06-16T21:45:50.674Z,24.47
2018-06-16T21:48:18.795Z,30.30
2018-06-16T21:50:46.797Z,29.37
2018-06-16T21:53:14.889Z,25.37
2018-06-16T21:55:43.005Z,22.30
2018-06-16T21:58:11.072Z,32.27
2018-06-16T22:00:39.222Z,23.83
2018-06-16T22:03:07.476Z,26.10
2018-06-16T22:05:35.537Z,23.27
2018-06-16T22:08:09.131Z,27.43
2018-06-16T22:10:37.450Z,25.63
2018-06-16T22:13:05.514Z,33.13
2018-06-16T22:15:33.615Z,25.17
2018-06-16T22:18:01.659Z,29.57
2018-06-16T22:20:29.739Z,34.00
2018-06-16T22:22:57.611Z,34.10
2018-06-16T22:25:25.833Z,30.37
2018-06-16T22:27:53.942Z,26.17
2018-06-16T22:30:22.106Z,29.43
2018-06-16T22:32:49.957Z,29.47
2018-06-16T22:35:18.014Z,35.43
2018-06-16T22:37:46.077Z,25.27
2018-06-16T22:40:14.216Z,30.97
2018-06-16T22:42:42.296Z,28.23
2018-06-16T22:45:10.506Z,31.17
2018-06-16T22:47:38.559Z,29.40
2018-06-16T22:50:07.288Z,35.03
2018-06-16T22:52:35.314Z,28.50
2018-06-16T22:55:03.372Z,30.47
2018-06-16T22:57:31.463Z,28.60
2018-06-16T22:59:59.499Z,31.60
2018-06-16T23:02:27.598Z,36.27
2018-06-16T23:04:55.699Z,35.43
2018-06-16T23:07:23.806Z,41.10
2018-06-16T23:09:51.824Z,38.27
2018-06-16T23:12:19.898Z,35.00
2018-06-16T23:14:47.958Z,45.10
2018-06-16T23:17:16.014Z,45.67
2018-06-16T23:19:44.082Z,42.97
2018-06-16T23:22:12.145Z,40.20
2018-06-16T23:24:40.230Z,49.20
2018-06-16T23:27:08.333Z,47.10
2018-06-16T23:29:36.389Z,52.17
2018-06-16T23:32:04.923Z,54.17
2018-06-16T23:34:33.003Z,46.93
2018-06-16T23:37:01.042Z,47.20
2018-06-16T23:39:29.147Z,48.33
2018-06-16T23:41:57.215Z,52.70
2018-06-16T23:44:25.290Z,47.17
2018-06-16T23:46:53.348Z,48.87
2018-06-16T23:49:21.405Z,51.37
2018-06-16T23:51:49.465Z,55.37
2018-06-16T23:54:17.521Z,53.63
2018-06-16T23:56:45.577Z,48.87
2018-06-16T23:59:13.623Z,50.83
